createdAt,value
2023-03-18T00:03:03.279Z,99329.06
2023-03-18T00:08:06.614Z,99337.03
2023-03-18T00:13:08.357Z,99339.00
2023-03-18T00:18:10.173Z,99338.75
2023-03-18T00:23:13.094Z,99339.56
2023-03-18T00:28:17.331Z,99337.50
2023-03-18T00:33:20.767Z,99339.88
2023-03-18T00:38:22.459Z,99339.59
2023-03-18T00:43:29.512Z,99332.31
2023-03-18T00:48:31.527Z,99333.19
2023-03-18T00:53:33.194Z,99329.94
2023-03-18T00:58:36.934Z,99330.34
2023-03-18T01:03:42.360Z,99324.38
2023-03-18T01:08:44.062Z,99306.34
2023-03-18T01:13:46.235Z,99315.09
2023-03-18T01:18:47.917Z,99313.41
2023-03-18T01:23:49.568Z,99304.81
2023-03-18T01:28:51.792Z,99305.41
2023-03-18T01:33:54.538Z,99303.53
2023-03-18T01:38:57.946Z,99308.78
2023-03-18T01:44:02.216Z,99294.31
2023-03-18T01:49:29.046Z,99300.34
2023-03-18T01:54:37.851Z,99299.16
2023-03-18T01:59:42.526Z,99306.78
2023-03-18T02:04:49.506Z,99306.03
2023-03-18T02:09:52.214Z,99301.31
2023-03-18T02:14:55.418Z,99316.06
2023-03-18T02:20:14.859Z,99315.31
2023-03-18T02:25:25.965Z,99326.09
2023-03-18T02:30:34.234Z,99328.75
2023-03-18T02:35:39.009Z,99327.44
2023-03-18T02:40:42.156Z,99329.94
2023-03-18T02:46:21.446Z,99336.00
2023-03-18T02:51:23.644Z,99342.50
2023-03-18T02:56:25.428Z,99348.81
2023-03-18T03:01:27.805Z,99349.22
2023-03-18T03:06:29.873Z,99359.09
2023-03-18T03:11:32.397Z,99362.31
2023-03-18T03:16:42.492Z,99362.41
2023-03-18T03:21:44.167Z,99358.63
2023-03-18T03:26:45.780Z,99358.72
2023-03-18T03:31:47.497Z,99369.94
2023-03-18T03:36:49.139Z,99366.66
2023-03-18T03:41:51.268Z,99368.81
2023-03-18T03:46:53.023Z,99371.97
2023-03-18T03:51:57.244Z,99384.31
2023-03-18T03:56:59.574Z,99386.25
2023-03-18T04:02:01.312Z,99393.97
2023-03-18T04:07:03.284Z,99393.47
2023-03-18T04:12:05.690Z,99400.31
2023-03-18T04:17:08.241Z,99411.81
2023-03-18T04:22:10.692Z,99402.75
2023-03-18T04:27:13.427Z,99411.66
2023-03-18T04:32:15.252Z,99409.78
2023-03-18T04:37:20.144Z,99414.56
2023-03-18T04:42:25.261Z,99414.78
2023-03-18T04:47:28.297Z,99424.59
2023-03-18T04:52:30.561Z,99436.66
2023-03-18T04:57:35.585Z,99432.44
2023-03-18T05:02:39.509Z,99429.38
2023-03-18T05:07:45.044Z,99425.59
2023-03-18T05:12:49.849Z,99427.28
2023-03-18T05:17:59.779Z,99432.34
2023-03-18T05:23:03.078Z,99443.28
2023-03-18T05:28:19.418Z,99431.94
2023-03-18T05:33:39.242Z,99438.91
2023-03-18T05:38:41.454Z,99438.91
2023-03-18T05:43:43.521Z,99454.16
2023-03-18T05:48:45.874Z,99450.84
2023-03-18T05:53:47.568Z,99447.31
2023-03-18T05:58:55.470Z,99447.31
2023-03-18T06:04:07.074Z,99451.16
2023-03-18T06:09:10.848Z,99461.28
2023-03-18T06:14:12.990Z,99459.13
2023-03-18T06:19:15.022Z,99465.50
2023-03-18T06:24:16.753Z,99471.38
2023-03-18T06:29:18.423Z,99469.81
2023-03-18T06:34:20.544Z,99465.00
2023-03-18T06:39:22.555Z,99477.00
2023-03-18T06:44:25.576Z,99469.78
2023-03-18T06:49:31.840Z,99479.53
2023-03-18T06:54:42.603Z,99467.00
2023-03-18T06:59:45.634Z,99476.69
2023-03-18T07:04:48.250Z,99469.03
2023-03-18T07:09:50.849Z,99483.38
2023-03-18T07:14:53.783Z,99485.41
2023-03-18T07:19:56.067Z,99486.88
2023-03-18T07:24:58.262Z,99479.75
2023-03-18T07:29:59.927Z,99473.78
2023-03-18T07:35:03.044Z,99468.28
2023-03-18T07:40:05.677Z,99460.56
2023-03-18T07:45:08.286Z,99455.78
2023-03-18T07:50:10.778Z,99459.44
2023-03-18T07:55:12.655Z,99454.31
2023-03-18T08:00:15.229Z,99451.75
2023-03-18T08:05:19.216Z,99451.44
2023-03-18T08:10:21.039Z,99448.72
2023-03-18T08:15:22.703Z,99453.22
2023-03-18T08:20:24.308Z,99448.53
2023-03-18T08:25:26.188Z,99449.06
2023-03-18T08:30:28.926Z,99450.31
2023-03-18T08:35:30.922Z,99463.31
2023-03-18T08:40:34.827Z,99468.06
2023-03-18T08:45:37.048Z,99472.84
2023-03-18T08:50:38.805Z,99477.47
2023-03-18T08:55:40.774Z,99483.88
2023-03-18T09:00:43.063Z,99475.94
2023-03-18T09:05:48.248Z,99469.00
2023-03-18T09:10:53.789Z,99463.88
2023-03-18T09:15:55.441Z,99465.25
2023-03-18T09:20:57.451Z,99460.88
2023-03-18T09:25:59.824Z,99460.25
2023-03-18T09:31:01.908Z,99461.97
2023-03-18T09:36:04.425Z,99454.13
2023-03-18T09:41:35.037Z,99450.22
2023-03-18T09:46:58.153Z,99450.31
2023-03-18T09:52:10.056Z,99453.25
2023-03-18T09:57:19.646Z,99441.94
2023-03-18T10:02:32.758Z,99441.16
2023-03-18T10:07:40.477Z,99436.75
2023-03-18T10:12:55.924Z,99438.06
2023-03-18T10:18:09.512Z,99445.22
2023-03-18T10:23:21.571Z,99447.47
2023-03-18T10:28:54.574Z,99447.31
2023-03-18T10:34:01.359Z,99455.41
2023-03-18T10:39:03.872Z,99456.03
2023-03-18T10:44:28.720Z,99448.44
2023-03-18T10:49:37.173Z,99461.81
2023-03-18T10:54:46.728Z,99465.19
2023-03-18T10:59:51.471Z,99460.88
2023-03-18T11:05:01.972Z,99465.38
2023-03-18T11:10:35.714Z,99480.25
2023-03-18T11:15:43.011Z,99475.16
2023-03-18T11:20:47.699Z,99474.13
2023-03-18T11:25:55.274Z,99462.53
2023-03-18T11:31:00.373Z,99476.34
2023-03-18T11:36:07.131Z,99464.22
2023-03-18T11:41:17.717Z,99472.56
2023-03-18T11:46:23.039Z,99472.41
2023-03-18T11:51:36.723Z,99468.94
2023-03-18T11:56:47.142Z,99469.38
2023-03-18T12:02:20.826Z,99469.44
2023-03-18T12:07:45.266Z,99461.81
2023-03-18T12:13:08.382Z,99467.09
2023-03-18T12:18:32.103Z,99466.75
2023-03-18T12:24:01.868Z,99459.66
2023-03-18T12:29:40.906Z,99453.69
2023-03-18T12:34:58.346Z,99455.13
2023-03-18T12:40:37.336Z,99451.19
2023-03-18T12:45:43.285Z,99463.22
2023-03-18T12:50:53.438Z,99453.75
2023-03-18T12:56:03.739Z,99455.28
2023-03-18T13:01:19.566Z,99451.84
2023-03-18T13:06:33.778Z,99460.53
2023-03-18T13:11:56.514Z,99447.06
2023-03-18T13:16:59.692Z,99444.69
2023-03-18T13:22:27.668Z,99454.19
2023-03-18T13:27:50.879Z,99444.16
2023-03-18T13:33:29.988Z,99439.66
2023-03-18T13:39:04.896Z,99438.50
2023-03-18T13:44:14.568Z,99433.22
2023-03-18T13:49:23.899Z,99431.25
2023-03-18T13:54:34.978Z,99415.72
2023-03-18T13:59:36.570Z,99419.13
2023-03-18T14:04:47.826Z,99415.94
2023-03-18T14:10:20.328Z,99416.22
2023-03-18T14:15:37.059Z,99416.03
2023-03-18T14:20:41.982Z,99413.47
2023-03-18T14:25:44.750Z,99410.09
2023-03-18T14:31:08.374Z,99406.56
2023-03-18T14:36:10.720Z,99411.00
2023-03-18T14:41:17.725Z,99399.78
2023-03-18T14:46:24.558Z,99400.81
2023-03-18T14:51:31.675Z,99404.84
2023-03-18T14:56:40.607Z,99402.72
2023-03-18T15:01:46.136Z,99401.41
2023-03-18T15:06:48.628Z,99395.94
2023-03-18T15:11:50.262Z,99397.56
2023-03-18T15:16:56.640Z,99396.31
2023-03-18T15:22:04.637Z,99409.25
2023-03-18T15:27:14.512Z,99410.03
2023-03-18T15:32:32.660Z,99405.84
2023-03-18T15:37:42.540Z,99413.41
2023-03-18T15:42:45.763Z,99416.97
2023-03-18T15:47:48.131Z,99428.25
2023-03-18T15:52:49.919Z,99419.34
2023-03-18T15:57:53.650Z,99423.56
2023-03-18T16:02:55.296Z,99425.66
2023-03-18T16:07:57.078Z,99432.59
2023-03-18T16:13:01.928Z,99441.34
2023-03-18T16:18:03.644Z,99438.88
2023-03-18T16:23:05.699Z,99444.88
2023-03-18T16:28:07.974Z,99439.28
2023-03-18T16:33:13.784Z,99445.56
2023-03-18T16:38:17.645Z,99453.47
2023-03-18T16:43:22.388Z,99454.06
2023-03-18T16:48:26.276Z,99463.75
2023-03-18T16:53:31.683Z,99475.25
2023-03-18T16:58:35.408Z,99472.41
2023-03-18T17:03:37.266Z,99472.97
2023-03-18T17:08:39.979Z,99483.34
2023-03-18T17:13:41.665Z,99487.22
2023-03-18T17:18:43.290Z,99494.09
2023-03-18T17:23:45.685Z,99496.59
2023-03-18T17:28:49.445Z,99504.72
2023-03-18T17:33:51.190Z,99506.25
2023-03-18T17:38:58.537Z,99520.63
2023-03-18T17:44:00.203Z,99514.84
2023-03-18T17:49:04.161Z,99516.16
2023-03-18T17:54:06.342Z,99531.00
2023-03-18T17:59:15.481Z,99527.28
2023-03-18T18:04:21.183Z,99541.16
2023-03-18T18:09:23.358Z,99537.44
2023-03-18T18:14:28.990Z,99533.31
2023-03-18T18:19:30.696Z,99525.50
2023-03-18T18:24:33.435Z,99524.66
2023-03-18T18:29:35.226Z,99527.22
2023-03-18T18:34:36.891Z,99525.72
2023-03-18T18:39:38.603Z,99529.94
2023-03-18T18:44:40.320Z,99523.22
2023-03-18T18:49:43.186Z,99529.78
2023-03-18T18:54:45.187Z,99531.44
2023-03-18T18:59:47.613Z,99533.25
2023-03-18T19:04:49.229Z,99536.31
2023-03-18T19:09:51.514Z,99527.22
2023-03-18T19:14:53.513Z,99525.84
2023-03-18T19:19:55.643Z,99528.53
2023-03-18T19:24:57.401Z,99535.50
2023-03-18T19:30:01.589Z,99535.78
2023-03-18T19:35:03.493Z,99545.53
2023-03-18T19:40:21.018Z,99540.41
2023-03-18T19:45:22.788Z,99541.59
2023-03-18T19:50:24.419Z,99542.44
2023-03-18T19:55:26.216Z,99539.28
2023-03-18T20:00:28.576Z,99548.31
2023-03-18T20:05:30.596Z,99538.97
2023-03-18T20:10:32.290Z,99557.50
2023-03-18T20:15:34.175Z,99543.22
2023-03-18T20:20:36.100Z,99547.09
2023-03-18T20:25:42.286Z,99546.94
2023-03-18T20:30:45.165Z,99549.03
2023-03-18T20:35:48.539Z,99553.13
2023-03-18T20:40:50.327Z,99560.53
2023-03-18T20:45:52.501Z,99558.84
2023-03-18T20:50:55.345Z,99543.75
2023-03-18T20:55:57.357Z,99535.13
2023-03-18T21:00:59.118Z,99539.53
2023-03-18T21:06:03.609Z,99539.16
2023-03-18T21:11:05.592Z,99544.06
2023-03-18T21:16:13.797Z,99549.69
2023-03-18T21:21:36.959Z,99563.56
2023-03-18T21:26:38.966Z,99555.03
2023-03-18T21:31:40.600Z,99559.16
2023-03-18T21:36:42.275Z,99548.84
2023-03-18T21:41:43.974Z,99561.91
2023-03-18T21:46:45.604Z,99550.56
2023-03-18T21:51:47.284Z,99555.06
2023-03-18T21:56:48.925Z,99543.63
2023-03-18T22:01:50.558Z,99543.44
2023-03-18T22:06:52.501Z,99544.06
2023-03-18T22:11:54.131Z,99539.88
2023-03-18T22:16:55.965Z,99558.47
2023-03-18T22:21:57.665Z,99561.53
2023-03-18T22:26:59.289Z,99560.84
2023-03-18T22:32:00.928Z,99555.22
2023-03-18T22:37:02.549Z,99553.81
2023-03-18T22:42:04.299Z,99557.72
2023-03-18T22:47:06.477Z,99560.34
2023-03-18T22:52:20.387Z,99551.16
2023-03-18T22:57:26.299Z,99555.19
2023-03-18T23:02:28.020Z,99554.59
2023-03-18T23:07:32.256Z,99561.94
2023-03-18T23:12:34.577Z,99549.63
2023-03-18T23:17:36.237Z,99551.09
2023-03-18T23:22:37.852Z,99548.94
2023-03-18T23:27:39.476Z,99545.31
2023-03-18T23:32:41.621Z,99543.97
2023-03-18T23:37:43.280Z,99540.69
2023-03-18T23:42:45.495Z,99546.97
2023-03-18T23:47:47.270Z,99552.50
2023-03-18T23:52:48.959Z,99544.63
2023-03-18T23:57:50.572Z,99555.25
